SBOSBO VCE / LIPZ
Speedbird OnlineSpeedbird Online VCE / LIPZ

Venice Marco Polo Airport
17:12 29.3°C

Location Venice, Italy
Latitude: 45.505299
Longitude: 12.3519
Local Time 17:12 on 20 Jun 2024
UTC +2 hours (Europe/Rome)
Currency £1 equals EUR 1.18
METAR LIPZ 201450Z 15004KT 120V180 CAVOK 28/24 Q1017 NOSIG
TAF TAF LIPZ 201100Z 2012/2118 VRB05KT 9999 FEW050 BECMG 2102/2104 0200 FG BKN002 BECMG 2105/2107 8000 NSC
Weather As Of 20 Jun 2024 17:12
Description Clear sky
Wind 7 km/h from South-East (150°)
Cloud Cover 0%
Precipitation Rain: none, Snow: none
Sunrise 05:21
Sunset 21:02
NOTAM 26 active NOTAM
Rotations During the last 90 days there were
367 flights from LHR
3 flights from VCE
374 flights to LHR
3 flights to VCE
Lounges Venice Marco Polo Lounge , Main terminal
Web Airport Website | Wikipedia
Codes IATA: VCE
ICAO: LIPZ
Altitude 2 Meter / 7 Feet
Distance 1,118 KM / 695 Miles
from London.
Runways
RunwayLength (m)Surface
04L2780Asphalt
04R3300Asphalt
22L3300Asphalt
22R2780Asphalt
Radio
TypeDescriptionFrequency
APPAPP118.9
ATISATIS122.225
GNDGND121.7
TWRTWR120.2
Live ATC



Support Speedbird Online

© 2017-2024 Speedbird Online